createdAt,value
2017-05-19T00:00:47.550Z,22.25
2017-05-19T00:01:57.844Z,22.28
2017-05-19T00:03:08.079Z,22.28
2017-05-19T00:04:18.316Z,22.25
2017-05-19T00:05:27.325Z,22.33
2017-05-19T00:06:36.949Z,22.25
2017-05-19T00:07:46.258Z,22.33
2017-05-19T00:08:56.194Z,22.39
2017-05-19T00:10:06.118Z,22.43
2017-05-19T00:11:16.090Z,22.47
2017-05-19T00:12:25.380Z,22.37
2017-05-19T00:13:34.985Z,22.45
2017-05-19T00:14:44.884Z,22.39
2017-05-19T00:15:55.093Z,22.47
2017-05-19T00:17:04.989Z,22.4
2017-05-19T00:18:14.608Z,22.46
2017-05-19T00:19:24.523Z,22.4
2017-05-19T00:20:34.152Z,22.36
2017-05-19T00:21:43.753Z,22.33
2017-05-19T00:22:53.050Z,22.33
2017-05-19T00:24:02.664Z,22.36
2017-05-19T00:25:12.274Z,22.37
2017-05-19T00:26:22.500Z,22.39
2017-05-19T00:27:31.795Z,22.37
2017-05-19T00:28:41.729Z,22.46
2017-05-19T00:29:51.960Z,22.49
2017-05-19T00:31:01.874Z,22.45
2017-05-19T00:32:11.504Z,22.46
2017-05-19T00:33:21.456Z,22.45
2017-05-19T00:34:31.393Z,22.4
2017-05-19T00:35:41.606Z,22.49
2017-05-19T00:36:51.218Z,22.39
2017-05-19T00:38:01.452Z,22.39
2017-05-19T00:39:11.429Z,22.42
2017-05-19T00:40:20.735Z,22.43
2017-05-19T00:41:30.659Z,22.47
2017-05-19T00:42:40.290Z,22.37
2017-05-19T00:43:50.213Z,22.47
2017-05-19T00:44:59.820Z,22.47
2017-05-19T00:46:09.743Z,22.37
2017-05-19T00:47:19.964Z,22.39
2017-05-19T00:48:30.192Z,22.36
2017-05-19T00:49:40.124Z,22.35
2017-05-19T00:50:50.052Z,22.28
2017-05-19T00:52:00.272Z,22.28
2017-05-19T00:53:10.482Z,22.2
2017-05-19T00:54:20.084Z,22.2
2017-05-19T00:55:29.681Z,22.15
2017-05-19T00:56:39.274Z,22.22
2017-05-19T00:57:49.197Z,22.24
2017-05-19T00:58:58.503Z,22.18
2017-05-19T01:00:08.110Z,22.21
2017-05-19T01:01:18.335Z,22.15
2017-05-19T01:02:28.251Z,22.18
2017-05-19T01:03:38.468Z,22.18
2017-05-19T01:04:48.069Z,22.2
2017-05-19T01:05:57.671Z,22.2
2017-05-19T01:07:07.268Z,22.21
2017-05-19T01:08:16.568Z,22.21
2017-05-19T01:09:26.489Z,22.2
2017-05-19T01:10:36.400Z,22.22
2017-05-19T01:11:46.321Z,22.17
2017-05-19T01:12:56.231Z,22.21
2017-05-19T01:14:05.526Z,22.22
2017-05-19T01:15:15.136Z,22.21
2017-05-19T01:16:24.754Z,22.24
2017-05-19T01:17:34.354Z,22.24
2017-05-19T01:18:44.271Z,22.24
2017-05-19T01:19:54.484Z,22.27
2017-05-19T01:21:04.406Z,22.25
2017-05-19T01:22:14.014Z,22.22
2017-05-19T01:23:24.243Z,22.21
2017-05-19T01:24:33.859Z,22.24
2017-05-19T01:25:43.787Z,22.27
2017-05-19T01:26:53.390Z,22.17
2017-05-19T01:28:03.614Z,22.2
2017-05-19T01:29:13.206Z,22.17
2017-05-19T01:30:22.809Z,22.22
2017-05-19T01:31:32.723Z,22.14
2017-05-19T01:32:42.632Z,22.07
2017-05-19T01:33:52.231Z,22.09
2017-05-19T01:35:01.854Z,22.05
2017-05-19T01:36:12.098Z,22.09
2017-05-19T01:37:22.321Z,21.98
2017-05-19T01:38:32.535Z,21.98
2017-05-19T01:39:42.451Z,22
2017-05-19T01:40:52.050Z,22.02
2017-05-19T01:42:01.669Z,21.94
2017-05-19T01:43:11.580Z,22
2017-05-19T01:44:21.803Z,21.9
2017-05-19T01:45:31.721Z,22.02
2017-05-19T01:46:40.711Z,21.98
2017-05-19T01:47:50.928Z,22.02
2017-05-19T01:49:00.892Z,21.96
2017-05-19T01:50:10.816Z,22
2017-05-19T01:51:21.051Z,22.02
2017-05-19T01:52:31.283Z,21.86
2017-05-19T01:53:41.500Z,21.98
2017-05-19T01:54:51.422Z,21.91
2017-05-19T01:56:01.067Z,21.82
2017-05-19T01:57:10.665Z,21.84
2017-05-19T01:58:19.965Z,22
2017-05-19T01:59:29.883Z,22.03
2017-05-19T02:00:39.485Z,21.99
2017-05-19T02:01:49.407Z,22
2017-05-19T02:02:59.623Z,21.88
2017-05-19T02:04:09.225Z,21.92
2017-05-19T02:05:19.137Z,21.88
2017-05-19T02:06:29.038Z,21.99
2017-05-19T02:07:39.019Z,21.98
2017-05-19T02:08:49.254Z,21.92
2017-05-19T02:09:59.156Z,21.88
2017-05-19T02:11:09.071Z,21.94
2017-05-19T02:12:19.291Z,21.94
2017-05-19T02:13:29.222Z,21.92
2017-05-19T02:14:39.129Z,22
2017-05-19T02:15:49.337Z,22.02
2017-05-19T02:16:59.261Z,21.98
2017-05-19T02:18:09.190Z,21.99
2017-05-19T02:19:18.823Z,21.99
2017-05-19T02:20:28.431Z,21.94
2017-05-19T02:21:38.657Z,21.98
2017-05-19T02:22:48.865Z,22
2017-05-19T02:23:58.470Z,21.96
2017-05-19T02:25:08.378Z,21.96
2017-05-19T02:26:17.384Z,21.98
2017-05-19T02:27:26.984Z,21.99
2017-05-19T02:28:36.887Z,21.96
2017-05-19T02:29:46.809Z,21.98
2017-05-19T02:30:57.093Z,21.92
2017-05-19T02:32:06.688Z,22.03
2017-05-19T02:33:16.285Z,22.02
2017-05-19T02:34:25.580Z,22
2017-05-19T02:35:35.484Z,21.96
2017-05-19T02:36:45.089Z,22.06
2017-05-19T02:37:54.727Z,22
2017-05-19T02:39:04.637Z,22.03
2017-05-19T02:40:14.233Z,22.09
2017-05-19T02:41:24.460Z,22.05
2017-05-19T02:42:34.378Z,22.2
2017-05-19T02:43:43.973Z,22.21
2017-05-19T02:44:53.876Z,22.22
2017-05-19T02:46:04.097Z,22.2
2017-05-19T02:47:13.091Z,22.2
2017-05-19T02:48:22.994Z,22.21
2017-05-19T02:49:32.917Z,22.22
2017-05-19T02:50:43.134Z,22.33
2017-05-19T02:51:53.156Z,22.21
2017-05-19T02:53:03.080Z,22.22
2017-05-19T02:54:13.307Z,22.21
2017-05-19T02:55:23.221Z,22.24
2017-05-19T02:56:32.827Z,22.27
2017-05-19T02:57:42.750Z,22.25
2017-05-19T02:58:52.961Z,22.31
2017-05-19T03:00:03.186Z,22.3
2017-05-19T03:01:12.507Z,22.35
2017-05-19T03:02:22.742Z,22.37
2017-05-19T03:03:32.960Z,22.3
2017-05-19T03:04:42.876Z,22.35
2017-05-19T03:05:52.487Z,22.39
2017-05-19T03:07:02.086Z,22.37
2017-05-19T03:08:12.313Z,22.33
2017-05-19T03:09:22.216Z,22.35
2017-05-19T03:10:31.518Z,22.35
2017-05-19T03:11:41.433Z,22.4
2017-05-19T03:12:51.053Z,22.33
2017-05-19T03:14:00.970Z,22.28
2017-05-19T03:15:10.570Z,22.31
2017-05-19T03:16:19.872Z,22.25
2017-05-19T03:17:29.514Z,22.2
2017-05-19T03:18:39.140Z,22.24
2017-05-19T03:19:49.366Z,22.28
2017-05-19T03:20:59.600Z,22.31
2017-05-19T03:22:09.808Z,22.3
2017-05-19T03:23:19.413Z,22.24
2017-05-19T03:24:29.321Z,22.36
2017-05-19T03:25:39.544Z,22.28
2017-05-19T03:26:49.447Z,22.35
2017-05-19T03:27:59.669Z,22.24
2017-05-19T03:29:09.598Z,22.24
2017-05-19T03:30:18.902Z,22.27
2017-05-19T03:31:28.806Z,22.27
2017-05-19T03:32:39.028Z,22.27
2017-05-19T03:33:48.936Z,22.25
2017-05-19T03:34:58.842Z,22.22
2017-05-19T03:36:08.748Z,22.24
2017-05-19T03:37:18.960Z,22.21
2017-05-19T03:38:29.188Z,22.06
2017-05-19T03:39:39.109Z,22.12
2017-05-19T03:40:49.024Z,22.07
2017-05-19T03:41:58.692Z,22.02
2017-05-19T03:43:08.975Z,22.09
2017-05-19T03:44:18.589Z,22.06
2017-05-19T03:45:28.882Z,22.09
2017-05-19T03:46:38.870Z,21.98
2017-05-19T03:47:48.172Z,22.07
2017-05-19T03:48:58.104Z,22.03
2017-05-19T03:50:07.734Z,22.06
2017-05-19T03:51:17.334Z,22.07
2017-05-19T03:52:27.563Z,22
2017-05-19T03:53:37.240Z,22.14
2017-05-19T03:54:46.907Z,22.21
2017-05-19T03:55:57.127Z,22.2
2017-05-19T03:57:07.046Z,22.21
2017-05-19T03:58:17.255Z,22.2
2017-05-19T03:59:27.468Z,22.2
2017-05-19T04:00:36.769Z,22.17
2017-05-19T04:01:46.669Z,22.18
2017-05-19T04:02:55.970Z,22.18
2017-05-19T04:04:05.890Z,22.2
2017-05-19T04:05:15.193Z,22.25
2017-05-19T04:06:24.798Z,22.25
2017-05-19T04:07:34.710Z,22.27
2017-05-19T04:08:44.630Z,22.3
2017-05-19T04:09:54.541Z,22.27
2017-05-19T04:11:04.458Z,22.28
2017-05-19T04:12:14.365Z,22.36
2017-05-19T04:13:23.717Z,22.28
2017-05-19T04:14:34.008Z,22.28
2017-05-19T04:15:44.235Z,22.31
2017-05-19T04:16:54.137Z,22.3
2017-05-19T04:18:04.365Z,22.3
2017-05-19T04:19:13.669Z,22.3
2017-05-19T04:20:23.288Z,22.35
2017-05-19T04:21:32.905Z,22.33
2017-05-19T04:22:42.823Z,22.35
2017-05-19T04:23:52.728Z,22.33
2017-05-19T04:25:02.355Z,22.37
2017-05-19T04:26:11.974Z,22.35
2017-05-19T04:27:21.892Z,22.36
2017-05-19T04:28:31.861Z,22.42
2017-05-19T04:29:41.483Z,22.35
2017-05-19T04:30:51.725Z,22.4
2017-05-19T04:32:01.679Z,22.42
2017-05-19T04:33:11.619Z,22.35
2017-05-19T04:34:21.237Z,22.36
2017-05-19T04:35:31.177Z,22.36
2017-05-19T04:36:40.799Z,22.31
2017-05-19T04:37:50.404Z,22.28
2017-05-19T04:39:00.653Z,22.3
2017-05-19T04:40:10.607Z,22.24
2017-05-19T04:41:20.820Z,22.24
2017-05-19T04:42:30.114Z,22.21
2017-05-19T04:43:40.033Z,22.2
2017-05-19T04:44:49.357Z,22.24
2017-05-19T04:45:59.616Z,22.18
2017-05-19T04:47:09.843Z,22.1
2017-05-19T04:48:19.772Z,22.15
2017-05-19T04:49:29.075Z,22.07
2017-05-19T04:50:39.294Z,22.15
2017-05-19T04:51:49.551Z,22.15
2017-05-19T04:52:59.468Z,22.24
2017-05-19T04:54:10.052Z,22.14
2017-05-19T04:55:19.663Z,22.14
2017-05-19T04:56:29.893Z,22.14
2017-05-19T04:57:39.511Z,22.12
2017-05-19T04:58:49.792Z,22.17
2017-05-19T04:59:59.425Z,22.31
2017-05-19T05:01:09.356Z,22.43
2017-05-19T05:02:18.990Z,22.58
2017-05-19T05:03:28.608Z,22.61
2017-05-19T05:04:38.841Z,22.7
2017-05-19T05:05:49.066Z,22.77
2017-05-19T05:06:58.702Z,22.97
2017-05-19T05:08:08.325Z,23.05
2017-05-19T05:09:18.260Z,23.13
2017-05-19T05:10:28.514Z,23.25
2017-05-19T05:11:38.276Z,23.31
2017-05-19T05:12:47.927Z,23.39
2017-05-19T05:13:57.866Z,23.42
2017-05-19T05:15:07.820Z,23.47
2017-05-19T05:16:17.743Z,23.55
2017-05-19T05:17:27.712Z,23.65
2017-05-19T05:18:38.049Z,23.68
2017-05-19T05:19:48.974Z,23.84
2017-05-19T05:20:58.582Z,23.85
2017-05-19T05:22:08.810Z,23.9
2017-05-19T05:23:18.433Z,23.91
2017-05-19T05:24:28.664Z,24
2017-05-19T05:25:38.897Z,24.02
2017-05-19T05:26:49.197Z,24.1
2017-05-19T05:27:58.819Z,24.24
2017-05-19T05:29:09.042Z,24.28
2017-05-19T05:30:18.963Z,24.37
2017-05-19T05:31:28.634Z,24.46
2017-05-19T05:32:38.620Z,24.42
2017-05-19T05:33:48.852Z,24.37
2017-05-19T05:34:58.774Z,24.49
2017-05-19T05:36:08.687Z,24.52
2017-05-19T05:37:18.594Z,24.52
2017-05-19T05:38:28.525Z,24.57
2017-05-19T05:39:38.741Z,24.65
2017-05-19T05:40:48.969Z,24.77
2017-05-19T05:41:58.659Z,24.73
2017-05-19T05:43:08.272Z,24.77
2017-05-19T05:44:18.198Z,24.87
2017-05-19T05:45:28.124Z,24.8
2017-05-19T05:46:38.333Z,24.8
2017-05-19T05:47:48.270Z,24.78
2017-05-19T05:48:58.195Z,24.95
2017-05-19T05:50:08.093Z,24.9
2017-05-19T05:51:17.703Z,24.88
2017-05-19T05:52:27.611Z,25
2017-05-19T05:53:37.227Z,24.98
2017-05-19T05:54:46.844Z,25.02
2017-05-19T05:55:56.749Z,25.09
2017-05-19T05:57:06.374Z,25.03
2017-05-19T05:58:16.288Z,25.1
2017-05-19T05:59:26.192Z,25.08
2017-05-19T06:00:36.118Z,25.13
2017-05-19T06:01:46.037Z,25.08
2017-05-19T06:02:55.636Z,25.09
2017-05-19T06:04:05.593Z,25.09
2017-05-19T06:05:15.189Z,25.13
2017-05-19T06:06:25.409Z,25.08
2017-05-19T06:07:35.639Z,25.09
2017-05-19T06:08:45.572Z,25.09
2017-05-19T06:09:54.863Z,25.1
2017-05-19T06:11:04.774Z,25.09
2017-05-19T06:12:14.415Z,25.18
2017-05-19T06:13:24.021Z,25.08
2017-05-19T06:14:33.622Z,25.13
2017-05-19T06:15:43.529Z,25.13
2017-05-19T06:16:53.128Z,25.2
2017-05-19T06:18:03.034Z,25.13
2017-05-19T06:19:12.949Z,25.21
2017-05-19T06:20:22.911Z,25.21
2017-05-19T06:21:32.536Z,25.17
2017-05-19T06:22:42.455Z,25.18
2017-05-19T06:23:52.664Z,25.17
2017-05-19T06:25:02.285Z,25.15
2017-05-19T06:26:11.583Z,25.23
2017-05-19T06:27:21.810Z,25.15
2017-05-19T06:28:30.869Z,25.2
2017-05-19T06:29:40.799Z,25.21
2017-05-19T06:30:50.403Z,25.23
2017-05-19T06:32:00.625Z,25.21
2017-05-19T06:33:10.547Z,25.2
2017-05-19T06:34:20.161Z,25.2
2017-05-19T06:35:29.784Z,25.2
2017-05-19T06:36:39.720Z,25.18
2017-05-19T06:37:49.337Z,25.17
2017-05-19T06:38:59.254Z,25.21
2017-05-19T06:40:09.181Z,25.2
2017-05-19T06:41:19.102Z,25.23
2017-05-19T06:42:28.720Z,25.21
2017-05-19T06:43:38.373Z,25.18
2017-05-19T06:44:48.298Z,25.2
2017-05-19T06:45:57.913Z,25.21
2017-05-19T06:47:08.134Z,25.17
2017-05-19T06:48:18.050Z,25.18
2017-05-19T06:49:27.963Z,25.18
2017-05-19T06:50:38.201Z,25.21
2017-05-19T06:51:48.128Z,25.15
2017-05-19T06:52:58.468Z,25.14
2017-05-19T06:54:07.765Z,25.15
2017-05-19T06:55:17.742Z,25.2
2017-05-19T06:56:27.969Z,25.15
2017-05-19T06:57:36.962Z,25.2
2017-05-19T06:58:47.188Z,25.2
2017-05-19T06:59:57.127Z,25.18
2017-05-19T07:01:06.460Z,25.17
2017-05-19T07:02:16.379Z,25.23
2017-05-19T07:03:26.035Z,25.25
2017-05-19T07:04:36.287Z,25.18
2017-05-19T07:05:46.215Z,25.2
2017-05-19T07:06:56.135Z,25.23
2017-05-19T07:08:05.748Z,25.23
2017-05-19T07:09:15.687Z,25.23
2017-05-19T07:10:25.920Z,25.21
2017-05-19T07:11:35.847Z,25.17
2017-05-19T07:12:45.452Z,25.18
2017-05-19T07:13:55.107Z,25.18
2017-05-19T07:15:04.421Z,25.2
2017-05-19T07:16:14.040Z,25.18
2017-05-19T07:17:23.955Z,25.17
2017-05-19T07:18:33.858Z,25.17
2017-05-19T07:19:43.791Z,25.2
2017-05-19T07:20:53.729Z,25.23
2017-05-19T07:22:03.393Z,25.18
2017-05-19T07:23:13.326Z,25.15
2017-05-19T07:24:23.264Z,25.17
2017-05-19T07:25:33.513Z,25.2
2017-05-19T07:26:43.746Z,25.15
2017-05-19T07:27:53.982Z,25.18
2017-05-19T07:29:03.927Z,25.17
2017-05-19T07:30:13.862Z,25.24
2017-05-19T07:31:23.784Z,25.18
2017-05-19T07:32:32.787Z,25.21
2017-05-19T07:33:42.712Z,25.24
2017-05-19T07:34:52.943Z,25.21
2017-05-19T07:36:03.181Z,25.18
2017-05-19T07:37:12.494Z,25.18
2017-05-19T07:38:21.807Z,25.18
2017-05-19T07:39:32.031Z,25.2
2017-05-19T07:40:42.267Z,25.23
2017-05-19T07:41:51.895Z,25.15
2017-05-19T07:43:01.841Z,25.2
2017-05-19T07:44:11.759Z,25.21
2017-05-19T07:45:21.087Z,25.2
2017-05-19T07:46:30.713Z,25.23
2017-05-19T07:47:40.016Z,25.23
2017-05-19T07:48:49.940Z,25.2
2017-05-19T07:50:00.171Z,25.3
2017-05-19T07:51:10.100Z,25.24
2017-05-19T07:52:19.702Z,25.27
2017-05-19T07:53:29.336Z,25.32
2017-05-19T07:54:38.954Z,25.3
2017-05-19T07:55:48.881Z,25.2
2017-05-19T07:56:59.100Z,25.3
2017-05-19T07:58:09.030Z,25.27
2017-05-19T07:59:19.168Z,25.32
2017-05-19T08:00:28.787Z,25.21
2017-05-19T08:01:38.106Z,25.25
2017-05-19T08:02:48.031Z,25.21
2017-05-19T08:03:57.640Z,25.27
2017-05-19T08:05:07.568Z,25.27
2017-05-19T08:06:17.040Z,25.3
2017-05-19T08:07:27.265Z,25.25
2017-05-19T08:08:37.499Z,25.24
2017-05-19T08:09:47.736Z,25.25
2017-05-19T08:10:57.377Z,25.24
2017-05-19T08:12:06.999Z,25.28
2017-05-19T08:13:16.659Z,25.27
2017-05-19T08:14:26.582Z,25.25
2017-05-19T08:15:36.196Z,25.21
2017-05-19T08:16:46.195Z,25.25
2017-05-19T08:17:56.147Z,25.27
2017-05-19T08:19:06.618Z,25.25
2017-05-19T08:20:16.550Z,25.27
2017-05-19T08:21:26.481Z,25.2
2017-05-19T08:22:36.751Z,25.28
2017-05-19T08:23:46.724Z,25.23
2017-05-19T08:24:56.649Z,25.24
2017-05-19T08:26:05.952Z,25.27
2017-05-19T08:27:15.558Z,25.27
2017-05-19T08:28:25.782Z,25.3
2017-05-19T08:29:36.013Z,25.27
2017-05-19T08:30:45.980Z,25.21
2017-05-19T08:31:56.205Z,25.28
2017-05-19T08:33:05.817Z,25.21
2017-05-19T08:34:15.120Z,25.25
2017-05-19T08:35:25.039Z,25.25
2017-05-19T08:36:35.013Z,25.21
2017-05-19T08:37:44.940Z,25.24
2017-05-19T08:38:55.166Z,25.23
2017-05-19T08:40:05.081Z,25.28
2017-05-19T08:41:15.001Z,25.23
2017-05-19T08:42:24.928Z,25.21
2017-05-19T08:43:34.554Z,25.32
2017-05-19T08:44:44.166Z,25.27
2017-05-19T08:45:54.096Z,25.25
2017-05-19T08:47:04.033Z,25.25
2017-05-19T08:48:13.960Z,25.3
2017-05-19T08:49:24.171Z,25.33
2017-05-19T08:50:33.779Z,25.35
2017-05-19T08:51:43.708Z,25.33
2017-05-19T08:52:53.941Z,25.32
2017-05-19T08:54:03.865Z,25.28
2017-05-19T08:55:13.498Z,25.38
2017-05-19T08:56:23.426Z,25.3
2017-05-19T08:57:33.435Z,25.39
2017-05-19T08:58:43.682Z,25.36
2017-05-19T09:00:12.808Z,25.33
2017-05-19T09:01:22.437Z,25.33
2017-05-19T09:02:32.370Z,25.36
2017-05-19T09:03:41.676Z,25.36
2017-05-19T09:04:51.913Z,25.43
2017-05-19T09:06:02.150Z,25.33
2017-05-19T09:07:11.763Z,25.3
2017-05-19T09:08:21.437Z,25.38
2017-05-19T09:09:31.690Z,25.43
2017-05-19T09:10:41.948Z,25.38
2017-05-19T09:11:51.862Z,25.38
2017-05-19T09:13:01.816Z,25.43
2017-05-19T09:14:11.746Z,25.42
2017-05-19T09:15:21.371Z,25.43
2017-05-19T09:16:31.001Z,25.45
2017-05-19T09:17:40.632Z,25.5
2017-05-19T09:18:50.551Z,25.52
2017-05-19T09:20:00.190Z,25.45
2017-05-19T09:21:10.105Z,25.57
2017-05-19T09:22:20.037Z,25.55
2017-05-19T09:23:29.675Z,25.45
2017-05-19T09:24:39.659Z,25.46
2017-05-19T09:25:49.578Z,25.47
2017-05-19T09:26:58.880Z,25.42
2017-05-19T09:28:09.141Z,25.46
2017-05-19T09:29:19.467Z,25.46
2017-05-19T09:30:29.457Z,25.57
2017-05-19T09:31:38.781Z,25.61
2017-05-19T09:32:49.022Z,25.64
2017-05-19T09:33:58.457Z,25.46
2017-05-19T09:35:07.787Z,25.62
2017-05-19T09:36:16.817Z,25.54
2017-05-19T09:37:26.541Z,25.6
2017-05-19T09:38:36.460Z,25.54
2017-05-19T09:39:46.689Z,25.54
2017-05-19T09:40:56.298Z,25.51
2017-05-19T09:42:05.902Z,25.57
2017-05-19T09:43:15.832Z,25.62
2017-05-19T09:44:25.754Z,25.57
2017-05-19T09:45:35.672Z,25.52
2017-05-19T09:46:45.606Z,25.43
2017-05-19T09:47:55.217Z,25.43
2017-05-19T09:49:05.460Z,25.47
2017-05-19T09:50:14.771Z,25.61
2017-05-19T09:51:24.445Z,25.61
2017-05-19T09:52:34.713Z,25.61
2017-05-19T09:53:44.962Z,25.55
2017-05-19T09:54:55.080Z,25.6
2017-05-19T09:56:05.317Z,25.6
2017-05-19T09:57:14.950Z,25.6
2017-05-19T09:58:25.181Z,25.57
2017-05-19T09:59:35.491Z,25.57
2017-05-19T10:00:45.738Z,25.55
2017-05-19T10:01:55.666Z,25.55
2017-05-19T10:03:05.600Z,25.57
2017-05-19T10:04:15.533Z,25.57
2017-05-19T10:05:25.467Z,25.54
2017-05-19T10:06:35.398Z,25.54
2017-05-19T10:07:45.339Z,25.61
2017-05-19T10:08:55.260Z,25.64
2017-05-19T10:10:05.212Z,25.6
2017-05-19T10:11:14.828Z,25.62
2017-05-19T10:12:24.754Z,25.61
2017-05-19T10:13:34.441Z,25.65
2017-05-19T10:14:44.061Z,25.65
2017-05-19T10:15:53.970Z,25.64
2017-05-19T10:17:03.613Z,25.67
2017-05-19T10:18:13.834Z,25.76
2017-05-19T10:19:23.764Z,25.67
2017-05-19T10:20:33.071Z,25.7
2017-05-19T10:21:42.991Z,25.69
2017-05-19T10:22:53.244Z,25.76
2017-05-19T10:24:02.889Z,25.72
2017-05-19T10:25:12.502Z,25.75
2017-05-19T10:26:21.802Z,25.75
2017-05-19T10:27:31.131Z,25.72
2017-05-19T10:28:41.040Z,25.73
2017-05-19T10:29:50.652Z,25.77
2017-05-19T10:30:59.953Z,25.75
2017-05-19T10:32:10.183Z,25.7
2017-05-19T10:33:20.100Z,25.7
2017-05-19T10:34:29.714Z,25.7
2017-05-19T10:35:39.632Z,25.69
2017-05-19T10:36:49.590Z,25.64
2017-05-19T10:37:59.517Z,25.67
2017-05-19T10:39:09.138Z,25.62
2017-05-19T10:40:18.461Z,25.69
2017-05-19T10:41:27.776Z,25.64
2017-05-19T10:42:37.075Z,25.61
2017-05-19T10:43:47.297Z,25.61
2017-05-19T10:44:57.216Z,25.65
2017-05-19T10:46:06.862Z,25.6
2017-05-19T10:47:16.181Z,25.62
2017-05-19T10:48:26.101Z,25.58
2017-05-19T10:49:36.029Z,25.55
2017-05-19T10:50:45.967Z,25.58
2017-05-19T10:51:56.207Z,25.62
2017-05-19T10:53:06.144Z,25.57
2017-05-19T10:54:16.375Z,25.55
2017-05-19T10:55:25.379Z,25.57
2017-05-19T10:56:35.599Z,25.55
2017-05-19T10:57:45.515Z,25.58
2017-05-19T10:58:55.126Z,25.6
2017-05-19T11:00:05.344Z,25.62
2017-05-19T11:01:15.292Z,25.52
2017-05-19T11:02:25.293Z,25.55
2017-05-19T11:03:35.523Z,25.58
2017-05-19T11:04:45.759Z,25.61
2017-05-19T11:05:55.369Z,25.62
2017-05-19T11:07:04.999Z,25.54
2017-05-19T11:08:14.615Z,25.43
2017-05-19T11:09:24.522Z,25.5
2017-05-19T11:10:34.448Z,25.57
2017-05-19T11:11:44.536Z,25.55
2017-05-19T11:12:54.783Z,25.58
2017-05-19T11:14:04.700Z,25.47
2017-05-19T11:15:14.350Z,25.47
2017-05-19T11:16:23.674Z,25.46
2017-05-19T11:17:33.615Z,25.54
2017-05-19T11:18:43.842Z,25.51
2017-05-19T11:19:53.763Z,25.58
2017-05-19T11:21:02.756Z,25.51
2017-05-19T11:22:12.677Z,25.57
2017-05-19T11:23:21.982Z,25.47
2017-05-19T11:24:32.229Z,25.52
2017-05-19T11:25:42.209Z,25.58
2017-05-19T11:26:51.850Z,25.51
2017-05-19T11:28:01.793Z,25.55
2017-05-19T11:29:11.712Z,25.57
2017-05-19T11:30:21.652Z,25.58
2017-05-19T11:31:31.565Z,25.61
2017-05-19T11:32:41.802Z,25.46
2017-05-19T11:33:52.034Z,25.58
2017-05-19T11:35:01.352Z,25.58
2017-05-19T11:36:10.365Z,25.55
2017-05-19T11:37:20.617Z,25.52
2017-05-19T11:38:30.253Z,25.55
2017-05-19T11:39:39.866Z,25.55
2017-05-19T11:40:49.820Z,25.57
2017-05-19T11:42:00.086Z,25.55
2017-05-19T11:43:10.368Z,25.54
2017-05-19T11:44:20.622Z,25.57
2017-05-19T11:45:30.590Z,25.54
2017-05-19T11:46:40.245Z,25.52
2017-05-19T11:47:50.515Z,25.47
2017-05-19T11:49:00.784Z,25.51
2017-05-19T11:50:10.782Z,25.51
2017-05-19T11:51:20.424Z,25.54
2017-05-19T11:52:30.713Z,25.6
2017-05-19T11:53:40.679Z,25.52
2017-05-19T11:54:50.339Z,25.57
2017-05-19T11:56:00.285Z,25.57
2017-05-19T11:57:10.288Z,25.6
2017-05-19T11:58:19.937Z,25.57
2017-05-19T11:59:30.214Z,25.47
2017-05-19T12:00:39.876Z,25.47
2017-05-19T12:01:49.857Z,25.46
2017-05-19T12:02:59.870Z,25.47
2017-05-19T12:04:10.147Z,25.46
2017-05-19T12:05:20.394Z,25.5
2017-05-19T12:06:30.637Z,25.5
2017-05-19T12:07:40.615Z,25.52
2017-05-19T12:08:50.265Z,25.38
2017-05-19T12:10:00.539Z,25.46
2017-05-19T12:11:09.902Z,25.38
2017-05-19T12:12:19.876Z,25.42
2017-05-19T12:13:29.569Z,25.35
2017-05-19T12:14:39.539Z,25.38
2017-05-19T12:15:49.789Z,25.39
2017-05-19T12:16:59.747Z,25.38
2017-05-19T12:18:09.681Z,25.33
2017-05-19T12:19:19.942Z,25.38
2017-05-19T12:20:29.559Z,25.43
2017-05-19T12:21:39.197Z,25.43
2017-05-19T12:22:48.847Z,25.39
2017-05-19T12:23:58.798Z,25.38
2017-05-19T12:25:08.439Z,25.42
2017-05-19T12:26:18.386Z,25.4
2017-05-19T12:27:28.042Z,25.36
2017-05-19T12:28:38.000Z,25.42
2017-05-19T12:29:47.340Z,25.35
2017-05-19T12:30:56.980Z,25.42
2017-05-19T12:32:06.605Z,25.39
2017-05-19T12:33:16.239Z,25.36
2017-05-19T12:34:26.479Z,25.4
2017-05-19T12:35:36.426Z,25.39
2017-05-19T12:36:46.065Z,25.38
2017-05-19T12:37:56.023Z,25.43
2017-05-19T12:39:05.976Z,25.36
2017-05-19T12:40:15.593Z,25.3
2017-05-19T12:41:25.225Z,25.39
2017-05-19T12:42:34.887Z,25.38
2017-05-19T12:43:44.505Z,25.33
2017-05-19T12:44:54.123Z,25.43
2017-05-19T12:46:03.730Z,25.43
2017-05-19T12:47:13.969Z,25.42
2017-05-19T12:48:23.886Z,25.36
2017-05-19T12:49:34.097Z,25.35
2017-05-19T12:50:44.038Z,25.36
2017-05-19T12:51:54.316Z,25.38
2017-05-19T12:53:04.249Z,25.32
2017-05-19T12:54:14.483Z,25.36
2017-05-19T12:55:24.115Z,25.42
2017-05-19T12:56:33.736Z,25.38
2017-05-19T12:57:43.351Z,25.32
2017-05-19T12:58:52.963Z,25.4
2017-05-19T13:00:02.267Z,25.38
2017-05-19T13:01:12.101Z,25.36
2017-05-19T13:02:22.036Z,25.39
2017-05-19T13:03:32.004Z,25.43
2017-05-19T13:04:41.775Z,25.36
2017-05-19T13:05:51.383Z,25.39
2017-05-19T13:07:01.485Z,25.4
2017-05-19T13:08:11.762Z,25.38
2017-05-19T13:09:21.595Z,25.4
2017-05-19T13:10:31.224Z,25.35
2017-05-19T13:11:41.469Z,25.42
2017-05-19T13:12:50.777Z,25.33
2017-05-19T13:14:00.698Z,25.42
2017-05-19T13:15:10.976Z,25.38
2017-05-19T13:16:21.202Z,25.4
2017-05-19T13:17:30.822Z,25.4
2017-05-19T13:18:40.148Z,25.38
2017-05-19T13:19:50.381Z,25.43
2017-05-19T13:21:00.299Z,25.42
2017-05-19T13:22:10.231Z,25.42
2017-05-19T13:23:20.160Z,25.51
2017-05-19T13:24:30.092Z,25.45
2017-05-19T13:25:40.018Z,25.46
2017-05-19T13:26:49.955Z,25.46
2017-05-19T13:27:59.894Z,25.5
2017-05-19T13:29:09.841Z,25.47
2017-05-19T13:30:20.081Z,25.5
2017-05-19T13:31:30.319Z,25.51
2017-05-19T13:32:40.244Z,25.46
2017-05-19T13:33:50.472Z,25.4
2017-05-19T13:35:00.707Z,25.4
2017-05-19T13:36:10.635Z,25.45
2017-05-19T13:37:21.021Z,25.3
2017-05-19T13:38:29.722Z,25.3
2017-05-19T13:39:39.341Z,25.33
2017-05-19T13:40:48.948Z,25.3
2017-05-19T13:41:58.588Z,25.3
2017-05-19T13:43:08.835Z,25.3
2017-05-19T13:44:18.765Z,25.27
2017-05-19T13:45:29.051Z,25.28
2017-05-19T13:46:38.995Z,25.23
2017-05-19T13:47:48.936Z,25.23
2017-05-19T13:48:58.873Z,25.24
2017-05-19T13:50:08.484Z,25.2
2017-05-19T13:51:18.091Z,25.23
2017-05-19T13:52:27.409Z,25.18
2017-05-19T13:53:37.351Z,25.15
2017-05-19T13:54:46.984Z,25.2
2017-05-19T13:55:57.227Z,25.2
2017-05-19T13:57:07.155Z,25.18
2017-05-19T13:58:17.088Z,25.17
2017-05-19T13:59:27.011Z,25.21
2017-05-19T14:00:36.917Z,25.14
2017-05-19T14:01:47.162Z,25.14
2017-05-19T14:02:56.798Z,25.14
2017-05-19T14:04:06.736Z,25.17
2017-05-19T14:05:15.724Z,25.18
2017-05-19T14:06:25.353Z,25.15
2017-05-19T14:07:35.291Z,25.13
2017-05-19T14:08:45.287Z,25.14
2017-05-19T14:09:55.527Z,25.18
2017-05-19T14:11:05.132Z,25.15
2017-05-19T14:12:15.378Z,25.1
2017-05-19T14:13:25.625Z,25.15
2017-05-19T14:14:35.613Z,25.18
2017-05-19T14:15:45.230Z,25.18
2017-05-19T14:16:55.145Z,25.17
2017-05-19T14:18:04.455Z,25.08
2017-05-19T14:19:14.390Z,25.17
2017-05-19T14:20:24.637Z,25.1
2017-05-19T14:21:34.862Z,25.1
2017-05-19T14:22:45.086Z,25.09
2017-05-19T14:23:54.703Z,25.09
2017-05-19T14:25:04.621Z,25.18
2017-05-19T14:26:14.571Z,25.1
2017-05-19T14:27:23.964Z,25.15
2017-05-19T14:28:33.883Z,25.21
2017-05-19T14:29:43.217Z,25.18
2017-05-19T14:30:52.839Z,25.2
2017-05-19T14:32:02.754Z,25.17
2017-05-19T14:33:12.685Z,25.14
2017-05-19T14:34:22.643Z,25.17
2017-05-19T14:35:32.311Z,25.15
2017-05-19T14:36:42.267Z,25.17
2017-05-19T14:37:51.904Z,25.15
2017-05-19T14:39:01.853Z,25.18
2017-05-19T14:40:11.808Z,25.2
2017-05-19T14:41:21.120Z,25.2
2017-05-19T14:42:31.402Z,25.17
2017-05-19T14:43:41.675Z,25.2
2017-05-19T14:44:51.604Z,25.21
2017-05-19T14:46:01.262Z,25.21
2017-05-19T14:47:11.416Z,25.18
2017-05-19T14:48:21.355Z,25.15
2017-05-19T14:49:31.305Z,25.18
2017-05-19T14:50:41.592Z,25.17
2017-05-19T14:51:51.254Z,25.23
2017-05-19T14:53:01.508Z,25.2
2017-05-19T14:54:11.752Z,25.21
2017-05-19T14:55:21.386Z,25.23
2017-05-19T14:56:31.620Z,25.25
2017-05-19T14:57:41.230Z,25.25
2017-05-19T14:58:51.477Z,25.32
2017-05-19T15:00:00.810Z,25.24
2017-05-19T15:01:10.430Z,25.3
2017-05-19T15:02:20.691Z,25.25
2017-05-19T15:03:30.980Z,25.27
2017-05-19T15:04:40.601Z,25.21
2017-05-19T15:05:50.531Z,25.24